Time;durP1;ratioP1;P1;durP2;ratioP2;P2;SDS_P1;SDS_P2;PMS_P1;PMS_P2;Temp;Humidity;BMP_temperature;BMP_pressure;BME280_temperature;BME280_humidity;BME280_pressure;Samples;Min_cycle;Max_cycle;Signal;HPM_P1;HPM_P2
2023/06/01 00:00:01;;;;;;;8.60;4.55;;;12.30;99.90;;;;;;5092997;28;20467;-61
2023/06/01 00:02:27;;;;;;;8.95;4.85;;;12.30;99.90;;;;;;5093576;28;20044;-62
2023/06/01 00:04:53;;;;;;;12.43;4.93;;;12.20;99.90;;;;;;5093573;28;20056;-60
2023/06/01 00:07:20;;;;;;;9.85;4.32;;;12.30;99.90;;;;;;5093847;28;20082;-61
2023/06/01 00:09:47;;;;;;;9.75;4.80;;;12.30;99.90;;;;;;5093870;28;20510;-60
2023/06/01 00:12:14;;;;;;;9.45;4.80;;;12.20;99.90;;;;;;5093281;28;20048;-61
2023/06/01 00:14:40;;;;;;;8.75;4.97;;;12.30;99.90;;;;;;5093428;28;20044;-61
2023/06/01 00:17:07;;;;;;;10.32;4.93;;;12.30;99.90;;;;;;5093653;28;20096;-59
2023/06/01 00:19:34;;;;;;;8.75;5.13;;;12.30;99.90;;;;;;5093255;28;20456;-60
2023/06/01 00:22:01;;;;;;;8.27;5.03;;;12.30;99.90;;;;;;5092976;28;20522;-59
2023/06/01 00:24:27;;;;;;;13.63;5.15;;;12.30;99.90;;;;;;5093202;28;20124;-60
2023/06/01 00:26:53;;;;;;;9.80;4.97;;;12.20;99.90;;;;;;5093073;28;20048;-60
2023/06/01 00:29:20;;;;;;;10.98;5.07;;;12.30;99.90;;;;;;5092956;28;20044;-60
2023/06/01 00:31:46;;;;;;;9.38;5.55;;;12.30;99.90;;;;;;5092818;28;20070;-60
2023/06/01 00:34:13;;;;;;;10.98;5.35;;;12.30;99.90;;;;;;5092987;28;20102;-60
2023/06/01 00:36:39;;;;;;;9.38;5.03;;;12.30;99.90;;;;;;5092932;28;20048;-60
2023/06/01 00:39:05;;;;;;;9.43;5.40;;;12.30;99.90;;;;;;5093264;28;20052;-62
2023/06/01 00:41:32;;;;;;;9.48;5.70;;;12.20;99.90;;;;;;5092677;28;20052;-61
2023/06/01 00:44:00;;;;;;;10.07;5.32;;;12.20;99.90;;;;;;5093015;28;20077;-61
2023/06/01 00:46:27;;;;;;;10.73;5.75;;;12.20;99.90;;;;;;5093171;28;20052;-61
2023/06/01 00:48:54;;;;;;;11.88;5.50;;;12.10;99.90;;;;;;5092883;28;20097;-61
2023/06/01 00:51:20;;;;;;;8.85;5.18;;;12.10;99.90;;;;;;5092068;28;20449;-60
2023/06/01 00:53:47;;;;;;;11.75;6.95;;;12.10;99.90;;;;;;5092593;28;20256;-61
2023/06/01 00:56:13;;;;;;;11.55;5.15;;;12.20;99.90;;;;;;5093120;28;20048;-61
2023/06/01 00:58:40;;;;;;;10.85;5.07;;;12.10;99.90;;;;;;5091687;28;20525;-61
2023/06/01 01:01:18;;;;;;;9.02;5.25;;;12.10;99.90;;;;;;5092180;28;20055;-62
2023/06/01 01:03:46;;;;;;;;;;;12.10;99.90;;;;;;5092910;28;20056;-61
2023/06/01 01:06:45;;;;;;;7.25;4.18;;;12.00;99.90;;;;;;5092512;28;19927;-60
2023/06/01 01:09:23;;;;;;;10.23;4.63;;;12.00;99.90;;;;;;5092893;28;20398;-62
2023/06/01 01:12:03;;;;;;;9.38;4.68;;;12.00;99.90;;;;;;5092423;28;20086;-59
2023/06/01 01:14:39;;;;;;;11.30;5.32;;;12.00;99.90;;;;;;5092373;28;20097;-61
2023/06/01 01:17:42;;;;;;;13.18;5.70;;;12.10;99.90;;;;;;5092527;28;20059;-61
2023/06/01 01:20:15;;;;;;;9.50;5.13;;;12.00;99.90;;;;;;5048442;28;20098;-61
2023/06/01 01:22:41;;;;;;;12.68;5.00;;;12.00;99.90;;;;;;5091587;28;20400;-61
2023/06/01 01:25:52;;;;;;;13.05;5.32;;;12.00;99.90;;;;;;5092290;28;20048;-61
2023/06/01 01:28:44;;;;;;;10.27;4.80;;;12.00;99.90;;;;;;5091998;28;20464;-61
2023/06/01 01:31:13;;;;;;;9.52;4.78;;;12.00;99.90;;;;;;5091901;28;20048;-59
2023/06/01 01:33:41;;;;;;;9.93;5.25;;;12.00;99.90;;;;;;5092163;28;20056;-60
2023/06/01 01:36:09;;;;;;;9.15;5.43;;;12.00;99.90;;;;;;5092036;28;20051;-59
2023/06/01 01:38:36;;;;;;;12.85;5.30;;;12.00;99.90;;;;;;5092153;28;20044;-59
2023/06/01 01:41:03;;;;;;;12.32;5.40;;;12.00;99.90;;;;;;5091564;28;20410;-60
2023/06/01 01:43:30;;;;;;;11.48;5.53;;;12.00;99.90;;;;;;5091953;28;20047;-60
2023/06/01 01:46:07;;;;;;;12.15;5.25;;;12.00;99.90;;;;;;5092284;28;20458;-61
2023/06/01 01:48:40;;;;;;;9.40;5.50;;;12.00;99.90;;;;;;5091980;28;20055;-60
2023/06/01 01:51:22;;;;;;;8.75;5.10;;;12.00;99.90;;;;;;5091447;28;20047;-60
2023/06/01 01:53:51;;;;;;;12.73;5.55;;;12.00;99.90;;;;;;5091486;28;20424;-59
2023/06/01 01:56:18;;;;;;;11.65;5.88;;;11.90;99.90;;;;;;5092048;28;20048;-60
2023/06/01 01:58:47;;;;;;;10.40;5.13;;;12.00;99.90;;;;;;5091368;28;20411;-61
2023/06/01 02:01:13;;;;;;;11.52;5.68;;;12.00;99.90;;;;;;5091481;28;20052;-60
2023/06/01 02:03:40;;;;;;;10.48;5.25;;;11.90;99.90;;;;;;5091640;28;20109;-61
2023/06/01 02:06:06;;;;;;;11.65;5.68;;;11.90;99.90;;;;;;5091708;28;20399;-61
2023/06/01 02:08:32;;;;;;;13.00;6.30;;;12.00;99.90;;;;;;5092125;28;20040;-61
2023/06/01 02:10:59;;;;;;;10.38;5.53;;;12.00;99.90;;;;;;5093558;28;20044;-61
2023/06/01 02:13:25;;;;;;;9.05;5.22;;;12.00;99.90;;;;;;5095907;28;20400;-60
2023/06/01 02:15:51;;;;;;;11.90;5.25;;;11.90;99.90;;;;;;5095587;28;20393;-60
2023/06/01 02:18:18;;;;;;;8.90;4.95;;;12.00;99.90;;;;;;5095728;28;20060;-61
2023/06/01 02:20:45;;;;;;;8.40;5.30;;;11.90;99.90;;;;;;5093994;28;20105;-60
2023/06/01 02:23:11;;;;;;;11.18;5.95;;;12.00;99.90;;;;;;5095556;28;20047;-60
2023/06/01 02:25:37;;;;;;;12.35;6.10;;;12.00;99.90;;;;;;5095691;28;20051;-61
2023/06/01 02:28:04;;;;;;;10.93;5.20;;;12.00;99.90;;;;;;5095512;28;20063;-61
2023/06/01 02:30:30;;;;;;;9.48;5.40;;;11.90;99.90;;;;;;5094757;28;20052;-61
2023/06/01 02:32:57;;;;;;;10.00;5.18;;;12.00;99.90;;;;;;5094251;28;20044;-62
2023/06/01 02:35:23;;;;;;;11.45;5.18;;;12.00;99.90;;;;;;5095431;28;20054;-60
2023/06/01 02:37:49;;;;;;;10.38;5.45;;;12.00;99.90;;;;;;5095474;28;20056;-60
2023/06/01 02:40:15;;;;;;;12.70;5.43;;;12.00;99.90;;;;;;5095092;28;20465;-60
2023/06/01 02:42:42;;;;;;;10.23;4.95;;;12.00;99.90;;;;;;5094966;28;20052;-61
2023/06/01 02:45:09;;;;;;;11.13;5.22;;;12.00;99.90;;;;;;5094812;28;20081;-61
2023/06/01 02:47:35;;;;;;;8.82;5.00;;;12.00;99.90;;;;;;5095308;28;20039;-60
2023/06/01 02:50:02;;;;;;;11.43;5.15;;;11.90;99.90;;;;;;5094746;28;20365;-60
2023/06/01 02:52:31;;;;;;;9.40;5.43;;;11.90;99.90;;;;;;5094729;28;20040;-60
2023/06/01 02:54:57;;;;;;;9.15;5.85;;;11.90;99.90;;;;;;5095040;28;20048;-60
2023/06/01 02:57:23;;;;;;;11.07;4.90;;;11.90;99.90;;;;;;5095148;28;20063;-61
2023/06/01 02:59:50;;;;;;;12.05;5.85;;;11.90;99.90;;;;;;5095075;28;20048;-62
2023/06/01 03:02:16;;;;;;;9.95;5.53;;;11.80;99.90;;;;;;5094679;28;20056;-62
2023/06/01 03:04:43;;;;;;;10.90;5.53;;;11.80;99.90;;;;;;5094346;28;20504;-60
2023/06/01 03:07:10;;;;;;;11.15;5.43;;;11.80;99.90;;;;;;5094948;28;20052;-62
2023/06/01 03:09:36;;;;;;;12.20;5.40;;;11.70;99.90;;;;;;5094827;28;20048;-60
2023/06/01 03:12:02;;;;;;;12.23;5.78;;;11.80;99.90;;;;;;5094400;28;20450;-60
2023/06/01 03:14:29;;;;;;;11.38;5.45;;;11.70;99.90;;;;;;5094733;28;20048;-61
2023/06/01 03:16:55;;;;;;;10.80;5.18;;;11.70;99.90;;;;;;5094987;28;20102;-61
2023/06/01 03:19:21;;;;;;;9.57;4.78;;;11.70;99.90;;;;;;5094756;28;20051;-61
2023/06/01 03:21:48;;;;;;;11.93;5.13;;;11.70;99.90;;;;;;5093923;28;20052;-60
2023/06/01 03:24:14;;;;;;;9.90;5.05;;;11.70;99.90;;;;;;5095189;28;20060;-60
2023/06/01 03:26:40;;;;;;;8.98;4.93;;;11.70;99.90;;;;;;5094573;28;20058;-60
2023/06/01 03:29:07;;;;;;;10.05;5.45;;;11.70;99.90;;;;;;5094028;28;20316;-61
2023/06/01 03:31:34;;;;;;;7.47;4.38;;;11.70;99.90;;;;;;5093777;28;20043;-62
2023/06/01 03:34:01;;;;;;;12.60;5.05;;;11.70;99.90;;;;;;5094436;28;20121;-61
2023/06/01 03:36:27;;;;;;;9.40;5.45;;;11.70;99.90;;;;;;5094131;28;20409;-59
2023/06/01 03:38:54;;;;;;;7.70;4.50;;;11.80;99.90;;;;;;5094380;28;20067;-60
2023/06/01 03:41:21;;;;;;;10.00;5.30;;;11.90;99.90;;;;;;5093614;28;20365;-60
2023/06/01 03:43:48;;;;;;;10.45;5.15;;;11.80;99.90;;;;;;5093045;28;20051;-60
2023/06/01 03:46:14;;;;;;;13.15;5.50;;;11.80;99.90;;;;;;5094305;28;20109;-60
2023/06/01 03:48:40;;;;;;;11.15;5.32;;;11.80;99.90;;;;;;5094058;28;20403;-60
2023/06/01 03:51:06;;;;;;;10.40;5.53;;;11.80;99.90;;;;;;5093392;28;20117;-60
2023/06/01 03:53:34;;;;;;;9.77;5.22;;;11.80;99.90;;;;;;5093805;28;20362;-60
2023/06/01 03:56:00;;;;;;;14.30;5.32;;;11.80;99.90;;;;;;5093942;28;20048;-60
2023/06/01 03:58:27;;;;;;;9.00;5.15;;;11.80;99.90;;;;;;5093130;28;20109;-60
2023/06/01 04:00:54;;;;;;;9.35;5.30;;;11.80;99.90;;;;;;5093587;28;20360;-60
2023/06/01 04:03:21;;;;;;;10.02;5.00;;;11.70;99.90;;;;;;5093637;28;20074;-61
2023/06/01 04:05:49;;;;;;;9.65;4.22;;;11.70;99.90;;;;;;5093543;28;20055;-60
2023/06/01 04:08:16;;;;;;;9.88;4.60;;;11.80;99.90;;;;;;5093772;28;20056;-62
2023/06/01 04:10:43;;;;;;;9.32;4.75;;;11.80;99.90;;;;;;5093243;28;20048;-62
2023/06/01 04:13:09;;;;;;;10.20;4.93;;;11.80;99.90;;;;;;5092375;28;20036;-61
2023/06/01 04:15:35;;;;;;;9.68;4.93;;;11.80;99.90;;;;;;5093585;28;20104;-61
2023/06/01 04:18:01;;;;;;;7.53;4.18;;;11.80;99.90;;;;;;5093260;28;20377;-61
2023/06/01 04:20:28;;;;;;;10.45;4.78;;;11.80;99.90;;;;;;5092823;28;20051;-60
2023/06/01 04:22:54;;;;;;;7.93;3.90;;;11.80;99.90;;;;;;5093293;28;20052;-61
2023/06/01 04:25:20;;;;;;;11.35;4.95;;;11.80;99.90;;;;;;5073153;28;20052;-60
2023/06/01 04:27:48;;;;;;;12.27;4.55;;;11.90;99.90;;;;;;5073193;28;20331;-60
2023/06/01 04:30:16;;;;;;;8.30;4.80;;;11.90;99.90;;;;;;5072196;28;20078;-61
2023/06/01 04:32:44;;;;;;;8.30;4.25;;;11.90;99.90;;;;;;5072865;28;20174;-61
2023/06/01 04:35:10;;;;;;;10.35;4.55;;;11.90;99.90;;;;;;5092334;28;20044;-60
2023/06/01 04:37:39;;;;;;;11.35;5.10;;;11.90;99.90;;;;;;5093193;28;20044;-60
2023/06/01 04:40:09;;;;;;;7.55;4.38;;;11.90;99.90;;;;;;5092823;28;20052;-61
2023/06/01 04:42:45;;;;;;;6.95;4.38;;;12.00;99.90;;;;;;5085100;28;20048;-60
2023/06/01 04:45:13;;;;;;;6.70;3.60;;;12.00;99.90;;;;;;5084069;28;20058;-61
2023/06/01 04:47:39;;;;;;;10.55;4.28;;;12.00;99.90;;;;;;5071645;28;20048;-62
2023/06/01 04:50:08;;;;;;;8.10;4.00;;;12.00;99.90;;;;;;5072101;28;20048;-60
2023/06/01 04:52:41;;;;;;;10.32;4.60;;;12.00;99.90;;;;;;5072595;28;20479;-60
2023/06/01 04:55:09;;;;;;;6.20;3.92;;;12.00;99.90;;;;;;5091793;28;20113;-63
2023/06/01 04:57:36;;;;;;;6.35;3.83;;;12.00;99.90;;;;;;5092747;28;20063;-61
2023/06/01 05:00:06;;;;;;;8.30;4.90;;;12.00;99.90;;;;;;5092404;28;20419;-62
2023/06/01 05:02:32;;;;;;;6.80;4.00;;;12.10;99.90;;;;;;5092710;28;20048;-62
2023/06/01 05:04:58;;;;;;;8.57;4.43;;;12.10;99.90;;;;;;5086102;28;20070;-60
2023/06/01 05:07:25;;;;;;;7.90;4.07;;;12.10;99.90;;;;;;5083014;28;20066;-60
2023/06/01 05:09:51;;;;;;;10.82;4.10;;;12.10;99.90;;;;;;5081263;28;20357;-60
2023/06/01 05:12:17;;;;;;;8.88;4.03;;;12.20;99.90;;;;;;5085703;28;20116;-61
2023/06/01 05:14:43;;;;;;;8.75;4.05;;;12.20;99.90;;;;;;5092692;28;20105;-61
2023/06/01 05:17:10;;;;;;;8.45;3.80;;;12.20;99.90;;;;;;5093031;28;20044;-62
2023/06/01 05:19:36;;;;;;;11.07;4.03;;;12.10;99.90;;;;;;5091716;28;20047;-60
2023/06/01 05:22:02;;;;;;;6.55;3.65;;;12.10;99.90;;;;;;5092024;28;20078;-60
2023/06/01 05:24:29;;;;;;;5.00;3.42;;;12.20;99.90;;;;;;5092184;28;20066;-62
2023/06/01 05:26:55;;;;;;;7.10;3.63;;;12.10;99.90;;;;;;5086408;28;20045;-61
2023/06/01 05:29:22;;;;;;;6.90;3.80;;;12.20;99.90;;;;;;5080434;28;20056;-61
2023/06/01 05:31:49;;;;;;;6.13;3.63;;;12.20;99.90;;;;;;5079254;28;20045;-62
2023/06/01 05:34:15;;;;;;;7.50;4.30;;;12.20;99.90;;;;;;5085788;28;20384;-61
2023/06/01 05:36:42;;;;;;;6.43;4.15;;;12.20;99.90;;;;;;5091466;28;20044;-60
2023/06/01 05:39:08;;;;;;;7.57;3.95;;;12.20;99.90;;;;;;5092499;28;20090;-60
2023/06/01 05:41:35;;;;;;;7.90;3.63;;;12.30;99.90;;;;;;5091651;28;20055;-61
2023/06/01 05:44:01;;;;;;;6.80;4.10;;;12.30;99.90;;;;;;5091997;28;20073;-61
2023/06/01 05:46:27;;;;;;;7.85;4.25;;;12.40;99.90;;;;;;5091886;28;20052;-61
2023/06/01 05:48:55;;;;;;;8.52;3.75;;;12.50;99.90;;;;;;5092066;28;20047;-61
2023/06/01 05:51:21;;;;;;;10.90;4.38;;;12.40;99.90;;;;;;5091499;28;20162;-62
2023/06/01 05:53:47;;;;;;;6.35;3.95;;;12.60;99.90;;;;;;5091512;28;20388;-62
2023/06/01 05:56:14;;;;;;;6.70;3.90;;;12.60;99.90;;;;;;5091992;28;20044;-62
2023/06/01 05:58:40;;;;;;;7.95;4.05;;;12.70;99.90;;;;;;5092061;28;20044;-62
2023/06/01 06:01:06;;;;;;;7.60;4.00;;;12.70;99.90;;;;;;5091715;28;20117;-61
2023/06/01 06:03:33;;;;;;;7.57;3.90;;;12.60;99.90;;;;;;5091624;28;20043;-61
2023/06/01 06:06:00;;;;;;;7.90;3.65;;;12.70;99.90;;;;;;5091969;28;20055;-61
2023/06/01 06:08:27;;;;;;;10.70;4.32;;;12.60;99.90;;;;;;5092187;28;20073;-62
2023/06/01 06:10:53;;;;;;;7.72;3.90;;;12.70;99.90;;;;;;5091614;28;20138;-62
2023/06/01 06:13:19;;;;;;;6.38;4.20;;;12.70;99.90;;;;;;5091594;28;20486;-63
2023/06/01 06:15:46;;;;;;;7.13;4.00;;;12.80;99.90;;;;;;5090730;28;20048;-63
2023/06/01 06:18:12;;;;;;;8.02;4.18;;;12.80;99.90;;;;;;5092161;28;20040;-64
2023/06/01 06:20:38;;;;;;;9.05;3.80;;;12.80;99.90;;;;;;5091325;28;20048;-61
2023/06/01 06:23:05;;;;;;;8.82;4.05;;;12.90;99.90;;;;;;5091619;28;20320;-63
2023/06/01 06:25:31;;;;;;;8.60;4.32;;;12.90;99.90;;;;;;5091850;28;20055;-62
2023/06/01 06:27:57;;;;;;;5.97;4.07;;;12.90;99.90;;;;;;5092915;28;20428;-63
2023/06/01 06:30:24;;;;;;;9.88;4.30;;;13.00;99.90;;;;;;5090706;28;20044;-63
2023/06/01 06:32:51;;;;;;;7.78;4.00;;;13.00;99.90;;;;;;5091746;28;20050;-64
2023/06/01 06:35:17;;;;;;;9.35;4.13;;;12.90;99.90;;;;;;5091473;28;20048;-62
2023/06/01 06:37:43;;;;;;;5.40;3.30;;;13.00;99.90;;;;;;5091526;28;20051;-62
2023/06/01 06:40:11;;;;;;;8.02;3.63;;;13.00;99.90;;;;;;5091058;28;20072;-64
2023/06/01 06:42:37;;;;;;;7.07;4.00;;;13.10;99.90;;;;;;5091308;28;20526;-62
2023/06/01 06:45:04;;;;;;;6.60;3.80;;;13.20;99.90;;;;;;5091243;28;20106;-62
2023/06/01 06:47:31;;;;;;;7.88;3.80;;;13.20;99.90;;;;;;5091520;28;20048;-64
2023/06/01 06:49:57;;;;;;;7.70;4.32;;;13.30;99.90;;;;;;5091014;28;20106;-62
2023/06/01 06:52:23;;;;;;;7.05;3.90;;;13.30;99.90;;;;;;5091429;28;20062;-62
2023/06/01 06:54:50;;;;;;;8.65;3.90;;;13.40;99.90;;;;;;5091173;28;20071;-62
2023/06/01 06:57:16;;;;;;;9.05;3.83;;;13.30;99.90;;;;;;5093833;28;20040;-62
2023/06/01 06:59:42;;;;;;;9.00;3.70;;;13.40;99.90;;;;;;5095181;28;20059;-64
2023/06/01 07:02:08;;;;;;;8.55;3.60;;;13.50;99.90;;;;;;5094517;28;20439;-63
2023/06/01 07:04:35;;;;;;;7.65;3.80;;;13.50;99.90;;;;;;5094548;28;20059;-62
2023/06/01 07:07:03;;;;;;;6.35;3.63;;;13.50;99.90;;;;;;5094956;28;20185;-62
2023/06/01 07:09:30;;;;;;;6.15;3.67;;;13.40;99.90;;;;;;5095321;28;20073;-63
2023/06/01 07:11:56;;;;;;;6.53;3.70;;;13.40;99.90;;;;;;5095553;28;20055;-63
2023/06/01 07:14:23;;;;;;;8.88;3.67;;;13.40;99.90;;;;;;5095288;28;20044;-63
2023/06/01 07:16:50;;;;;;;8.95;4.22;;;13.50;99.90;;;;;;5094819;28;20455;-62
2023/06/01 07:19:16;;;;;;;7.10;3.78;;;13.50;99.90;;;;;;5095022;28;20044;-62
2023/06/01 07:21:42;;;;;;;8.20;4.25;;;13.60;99.90;;;;;;5094075;28;20254;-62
2023/06/01 07:24:09;;;;;;;6.82;3.92;;;13.60;99.90;;;;;;5094425;28;20044;-64
2023/06/01 07:26:35;;;;;;;8.13;3.90;;;13.70;99.90;;;;;;5093938;28;20406;-64
2023/06/01 07:29:02;;;;;;;8.48;4.55;;;13.70;99.90;;;;;;5093991;28;20285;-63
2023/06/01 07:31:28;;;;;;;7.30;4.30;;;13.80;99.90;;;;;;5094194;28;20048;-63
2023/06/01 07:33:57;;;;;;;7.20;4.13;;;13.80;99.90;;;;;;5094441;28;20055;-63
2023/06/01 07:36:23;;;;;;;8.68;4.30;;;13.80;99.90;;;;;;5093238;28;20035;-62
2023/06/01 07:38:50;;;;;;;8.02;4.25;;;13.90;99.90;;;;;;5094418;28;20062;-62
2023/06/01 07:41:16;;;;;;;8.43;4.47;;;14.00;99.90;;;;;;5093827;28;20491;-63
2023/06/01 07:43:43;;;;;;;6.53;4.15;;;14.00;99.90;;;;;;5093960;28;20055;-63
2023/06/01 07:46:09;;;;;;;9.45;4.45;;;14.10;99.90;;;;;;5094121;28;20059;-63
2023/06/01 07:48:38;;;;;;;8.45;4.13;;;14.00;99.90;;;;;;5094094;28;20079;-63
2023/06/01 07:51:04;;;;;;;7.63;3.80;;;14.20;99.90;;;;;;5093593;28;20040;-62
2023/06/01 07:53:35;;;;;;;6.68;3.80;;;14.20;99.90;;;;;;5093856;28;20051;-63
2023/06/01 07:56:02;;;;;;;6.18;3.72;;;14.10;99.90;;;;;;5093783;28;20545;-63
2023/06/01 07:58:28;;;;;;;5.82;3.50;;;14.20;99.90;;;;;;5093105;28;20047;-62
2023/06/01 08:00:55;;;;;;;8.05;3.85;;;14.20;99.90;;;;;;5093464;28;20452;-62
2023/06/01 08:03:21;;;;;;;9.20;4.10;;;14.30;99.90;;;;;;5093481;28;20056;-63
2023/06/01 08:05:47;;;;;;;6.68;3.80;;;14.50;99.90;;;;;;5093715;28;20452;-62
2023/06/01 08:08:15;;;;;;;10.82;4.15;;;14.60;99.90;;;;;;5093154;28;20070;-62
2023/06/01 08:10:41;;;;;;;10.13;3.53;;;14.70;99.90;;;;;;5093160;28;20048;-62
2023/06/01 08:13:07;;;;;;;7.15;3.90;;;14.80;99.90;;;;;;5093517;28;20097;-62
2023/06/01 08:15:36;;;;;;;7.13;3.80;;;14.80;99.90;;;;;;5073245;28;20459;-62
2023/06/01 08:18:04;;;;;;;6.25;4.22;;;14.80;99.90;;;;;;5073323;28;20044;-64
2023/06/01 08:20:30;;;;;;;9.32;3.65;;;15.00;99.90;;;;;;5072660;28;20461;-64
2023/06/01 08:22:57;;;;;;;9.35;3.85;;;14.90;99.90;;;;;;5073707;28;20059;-64
2023/06/01 08:25:23;;;;;;;9.00;4.13;;;14.90;99.90;;;;;;5092688;28;20063;-63
2023/06/01 08:27:49;;;;;;;7.45;3.55;;;15.00;99.90;;;;;;5092360;28;20121;-62
2023/06/01 08:30:16;;;;;;;7.43;3.60;;;15.10;99.90;;;;;;5092482;28;20052;-64
2023/06/01 08:32:42;;;;;;;8.25;3.90;;;15.20;99.90;;;;;;5093266;28;20048;-64
2023/06/01 08:35:09;;;;;;;6.10;3.70;;;15.20;99.90;;;;;;5092882;28;20113;-62
2023/06/01 08:37:36;;;;;;;7.95;3.70;;;15.10;99.90;;;;;;5093210;28;20058;-62
2023/06/01 08:40:06;;;;;;;8.07;4.32;;;15.20;99.90;;;;;;5092718;28;20048;-64
2023/06/01 08:43:09;;;;;;;9.13;4.00;;;15.20;99.90;;;;;;5093341;28;20043;-63
2023/06/01 08:45:37;;;;;;;7.93;3.78;;;15.10;99.90;;;;;;5041939;28;20060;-62
2023/06/01 08:48:08;;;;;;;8.43;4.13;;;15.20;99.90;;;;;;5072656;28;20189;-64
2023/06/01 08:50:35;;;;;;;8.27;3.80;;;15.30;99.90;;;;;;5072101;28;20072;-62
2023/06/01 08:53:03;;;;;;;7.38;3.40;;;15.30;99.90;;;;;;5072562;28;20117;-63
2023/06/01 08:55:30;;;;;;;7.82;3.55;;;15.50;99.90;;;;;;5091584;28;20062;-64
2023/06/01 08:57:57;;;;;;;8.90;4.00;;;15.60;99.90;;;;;;5092895;28;20044;-62
2023/06/01 09:00:24;;;;;;;8.40;4.13;;;15.60;99.90;;;;;;5091227;28;20055;-64
2023/06/01 09:02:51;;;;;;;9.15;3.63;;;15.50;99.90;;;;;;5092695;28;20113;-63
2023/06/01 09:05:18;;;;;;;10.95;3.90;;;15.60;99.90;;;;;;5092149;28;20070;-61
2023/06/01 09:07:44;;;;;;;10.00;3.83;;;15.50;99.90;;;;;;5091963;28;20062;-63
2023/06/01 09:10:11;;;;;;;8.00;3.22;;;15.50;99.90;;;;;;5092637;28;20040;-63
2023/06/01 09:12:40;;;;;;;6.95;3.65;;;15.50;99.90;;;;;;5092529;28;20047;-62
2023/06/01 09:15:11;;;;;;;7.10;3.63;;;15.60;99.90;;;;;;5092241;28;20044;-61
2023/06/01 09:17:39;;;;;;;10.23;3.80;;;15.70;99.90;;;;;;5092090;28;20418;-62
2023/06/01 09:20:10;;;;;;;5.97;3.30;;;15.70;99.90;;;;;;5090163;28;20526;-61
2023/06/01 09:22:45;;;;;;;8.55;3.65;;;15.70;99.90;;;;;;5092529;28;20105;-62
2023/06/01 09:25:13;;;;;;;7.47;3.70;;;15.80;99.90;;;;;;5092637;28;20051;-63
2023/06/01 09:27:45;;;;;;;5.40;2.95;;;16.00;99.90;;;;;;5092299;28;20048;-60
2023/06/01 09:30:13;;;;;;;5.32;2.90;;;16.00;99.90;;;;;;5091253;28;20060;-63
2023/06/01 09:32:39;;;;;;;4.13;2.78;;;15.80;99.90;;;;;;5092106;28;20056;-63
2023/06/01 09:35:07;;;;;;;4.90;2.70;;;15.90;99.90;;;;;;5091735;28;20040;-60
2023/06/01 09:37:37;;;;;;;5.63;2.22;;;15.90;99.90;;;;;;5092153;28;20056;-61
2023/06/01 09:40:17;;;;;;;4.13;2.40;;;15.90;99.90;;;;;;5091985;28;20059;-62
2023/06/01 09:42:44;;;;;;;4.53;2.40;;;15.90;99.90;;;;;;5092132;28;20333;-63
2023/06/01 09:45:17;;;;;;;5.93;2.67;;;15.90;99.90;;;;;;5091745;28;20147;-65
2023/06/01 09:47:43;;;;;;;3.50;2.38;;;15.90;99.90;;;;;;5091965;28;20051;-64
2023/06/01 09:50:10;;;;;;;4.65;2.50;;;15.90;99.90;;;;;;5091508;28;20445;-62
2023/06/01 09:52:37;;;;;;;4.10;2.70;;;16.00;99.90;;;;;;5091917;28;20047;-63
2023/06/01 09:55:07;;;;;;;3.33;2.10;;;16.00;99.90;;;;;;5091393;28;20384;-63
2023/06/01 09:57:33;;;;;;;5.47;2.50;;;15.80;99.90;;;;;;5091816;28;20358;-63
2023/06/01 10:00:05;;;;;;;4.35;2.25;;;15.90;99.90;;;;;;5091715;28;20052;-64
2023/06/01 10:02:32;;;;;;;4.13;2.60;;;15.90;99.90;;;;;;5092024;28;20105;-64
2023/06/01 10:05:00;;;;;;;6.93;2.67;;;15.90;99.90;;;;;;5091466;28;20153;-62
2023/06/01 10:07:29;;;;;;;3.97;2.75;;;15.90;99.90;;;;;;5091870;28;20418;-64
2023/06/01 10:09:58;;;;;;;5.43;2.83;;;15.80;99.90;;;;;;5090508;28;20101;-62
2023/06/01 10:12:25;;;;;;;4.20;2.90;;;15.80;99.90;;;;;;5092043;28;20448;-62
2023/06/01 10:14:52;;;;;;;7.05;3.10;;;15.60;99.90;;;;;;5091618;28;20055;-64
2023/06/01 10:17:19;;;;;;;3.95;2.60;;;15.50;99.90;;;;;;5091829;28;20048;-64
2023/06/01 10:19:46;;;;;;;5.15;2.70;;;15.50;99.90;;;;;;5091290;28;20052;-63
2023/06/01 10:22:12;;;;;;;5.00;2.97;;;15.40;99.90;;;;;;5091999;28;20040;-63
2023/06/01 10:24:41;;;;;;;4.65;2.80;;;15.40;99.90;;;;;;5091803;28;20044;-63
2023/06/01 10:27:26;;;;;;;4.85;2.63;;;15.50;99.90;;;;;;5091831;28;20121;-63
2023/06/01 10:29:53;;;;;;;7.57;2.75;;;15.50;99.90;;;;;;5090787;28;20519;-63
2023/06/01 10:32:42;;;;;;;5.05;2.53;;;15.50;99.90;;;;;;5094285;28;20460;-63
2023/06/01 10:35:10;;;;;;;6.43;3.10;;;15.50;99.90;;;;;;5095085;28;20448;-62
2023/06/01 10:37:36;;;;;;;6.70;3.30;;;15.50;99.90;;;;;;5095483;28;20105;-62
2023/06/01 10:40:23;;;;;;;9.25;3.10;;;15.30;99.90;;;;;;5094961;28;20063;-62
2023/06/01 10:42:50;;;;;;;9.65;3.40;;;15.30;99.90;;;;;;5095700;28;20282;-63
2023/06/01 10:45:35;;;;;;;6.30;3.25;;;15.20;99.90;;;;;;5095198;28;20112;-63
2023/06/01 10:48:03;;;;;;;6.45;3.42;;;15.10;99.90;;;;;;5095521;28;20067;-64
2023/06/01 10:50:29;;;;;;;5.18;3.38;;;15.00;99.90;;;;;;5094470;28;20517;-63
2023/06/01 10:52:57;;;;;;;6.50;3.83;;;15.00;99.90;;;;;;5095526;28;20048;-64
2023/06/01 10:55:25;;;;;;;6.78;3.97;;;14.90;99.90;;;;;;5094149;28;20105;-64
2023/06/01 10:58:12;;;;;;;10.73;3.88;;;14.90;99.90;;;;;;5095426;28;20051;-63
2023/06/01 11:00:39;;;;;;;9.40;4.28;;;15.00;99.90;;;;;;5094438;28;20048;-63
2023/06/01 11:03:05;;;;;;;9.05;4.22;;;15.00;99.90;;;;;;5095283;28;20343;-63
2023/06/01 11:05:37;;;;;;;7.57;3.60;;;15.10;99.90;;;;;;5094756;28;20063;-62
2023/06/01 11:08:29;;;;;;;9.10;3.60;;;15.30;99.90;;;;;;5095069;28;20463;-62
2023/06/01 11:11:02;;;;;;;7.95;3.72;;;15.30;99.90;;;;;;5094398;28;20051;-65
2023/06/01 11:13:39;;;;;;;7.45;3.95;;;15.50;99.90;;;;;;5094608;28;20353;-64
2023/06/01 11:16:18;;;;;;;8.82;3.88;;;15.40;99.90;;;;;;5095025;28;20051;-64
2023/06/01 11:18:49;;;;;;;7.57;3.80;;;15.40;99.90;;;;;;5094723;28;20048;-64
2023/06/01 11:21:18;;;;;;;7.05;3.50;;;15.30;99.90;;;;;;5094512;28;20052;-62
2023/06/01 11:23:45;;;;;;;10.02;3.63;;;15.50;99.90;;;;;;5094478;28;20061;-62
2023/06/01 11:26:15;;;;;;;9.30;4.00;;;15.40;99.90;;;;;;5095098;28;20048;-64
2023/06/01 11:28:43;;;;;;;7.95;3.58;;;15.40;99.90;;;;;;5094448;28;20075;-64
2023/06/01 11:31:11;;;;;;;8.32;4.00;;;15.60;99.90;;;;;;5093841;28;20376;-62
2023/06/01 11:33:41;;;;;;;6.10;3.20;;;15.60;99.90;;;;;;5094498;28;20040;-64
2023/06/01 11:36:10;;;;;;;10.85;3.38;;;15.60;99.90;;;;;;5094402;28;20425;-64
2023/06/01 11:38:40;;;;;;;10.52;3.83;;;15.70;99.90;;;;;;5094637;28;20061;-64
2023/06/01 11:41:08;;;;;;;10.13;3.60;;;15.70;99.90;;;;;;5094194;28;20063;-64
2023/06/01 11:43:35;;;;;;;7.90;3.60;;;15.60;99.90;;;;;;5093369;28;20055;-63
2023/06/01 11:46:06;;;;;;;11.82;4.00;;;15.70;99.90;;;;;;5094628;28;20052;-62
2023/06/01 11:48:36;;;;;;;10.65;3.80;;;15.60;99.90;;;;;;5094346;28;20530;-64
2023/06/01 11:51:04;;;;;;;6.70;3.60;;;15.70;99.90;;;;;;5093916;28;20373;-64
2023/06/01 11:53:31;;;;;;;11.05;3.10;;;15.60;99.90;;;;;;5093669;28;20460;-63
2023/06/01 11:55:58;;;;;;;6.75;3.42;;;15.50;99.90;;;;;;5094485;28;20048;-63
2023/06/01 11:58:27;;;;;;;7.18;3.80;;;15.70;99.90;;;;;;5094444;28;20059;-62
2023/06/01 12:00:55;;;;;;;7.70;3.40;;;15.80;99.90;;;;;;5093535;28;20492;-62
2023/06/01 12:03:24;;;;;;;11.10;3.65;;;15.90;99.90;;;;;;5093772;28;20059;-63
2023/06/01 12:05:50;;;;;;;7.28;3.40;;;15.90;99.90;;;;;;5073708;28;20049;-64
2023/06/01 12:08:22;;;;;;;7.63;3.55;;;16.00;99.90;;;;;;5073735;28;20053;-64
2023/06/01 12:10:50;;;;;;;8.48;3.42;;;16.10;99.90;;;;;;5073116;28;20058;-63
2023/06/01 12:13:18;;;;;;;7.97;3.67;;;16.10;99.90;;;;;;5073888;28;20056;-64
2023/06/01 12:15:45;;;;;;;7.50;3.88;;;16.00;99.90;;;;;;5093131;28;20113;-62
2023/06/01 12:18:12;;;;;;;8.15;3.95;;;15.90;99.90;;;;;;5076236;28;20062;-64
2023/06/01 12:20:41;;;;;;;6.50;3.65;;;16.10;99.90;;;;;;5093045;28;20052;-63
2023/06/01 12:23:19;;;;;;;6.50;3.40;;;16.20;99.90;;;;;;5093676;28;20565;-64
2023/06/01 12:25:50;;;;;;;5.13;3.60;;;16.60;99.90;;;;;;5091981;28;20048;-63
2023/06/01 12:28:19;;;;;;;8.77;4.20;;;16.60;99.90;;;;;;5093851;28;20419;-64
2023/06/01 12:30:47;;;;;;;8.25;3.83;;;16.70;99.90;;;;;;5092698;28;20052;-63
2023/06/01 12:33:35;;;;;;;9.10;3.50;;;16.80;99.90;;;;;;5093743;28;20044;-64
2023/06/01 12:36:07;;;;;;;7.75;4.05;;;17.00;99.90;;;;;;5072747;28;20424;-63
2023/06/01 12:38:37;;;;;;;7.32;4.03;;;17.00;99.90;;;;;;5073062;28;20045;-63
2023/06/01 12:41:11;;;;;;;8.77;4.55;;;16.90;99.90;;;;;;5071838;28;20463;-63
2023/06/01 12:43:38;;;;;;;6.82;4.32;;;16.90;99.90;;;;;;5075815;28;20048;-63
2023/06/01 12:46:05;;;;;;;9.02;4.05;;;16.70;99.90;;;;;;5093198;28;20054;-63
2023/06/01 12:48:33;;;;;;;9.15;3.88;;;17.00;99.90;;;;;;5093073;28;20048;-64
2023/06/01 12:51:00;;;;;;;8.85;4.03;;;17.00;99.90;;;;;;5092436;28;20048;-63